createdAt,value
2022-09-12T00:00:18.487Z,0.00
2022-09-12T00:01:18.518Z,0.00
2022-09-12T00:02:18.490Z,0.00
2022-09-12T00:03:18.459Z,0.00
2022-09-12T00:04:18.452Z,0.00
2022-09-12T00:05:18.440Z,0.00
2022-09-12T00:06:22.587Z,0.00
2022-09-12T00:07:18.411Z,0.00
2022-09-12T00:08:18.409Z,0.00
2022-09-12T00:09:18.408Z,0.00
2022-09-12T00:10:18.372Z,0.00
2022-09-12T00:11:18.360Z,0.00
2022-09-12T00:12:18.329Z,0.00
2022-09-12T00:13:18.319Z,0.00
2022-09-12T00:14:18.309Z,0.00
2022-09-12T00:15:18.309Z,0.00
2022-09-12T00:16:18.330Z,0.00
2022-09-12T00:17:18.282Z,0.00
2022-09-12T00:18:18.260Z,0.00
2022-09-12T00:19:18.260Z,0.00
2022-09-12T00:20:18.249Z,0.00
2022-09-12T00:21:18.229Z,0.00
2022-09-12T00:22:18.211Z,0.00
2022-09-12T00:23:18.202Z,0.00
2022-09-12T00:24:18.183Z,0.00
2022-09-12T00:25:18.172Z,0.00
2022-09-12T00:26:18.193Z,0.00
2022-09-12T00:27:18.153Z,0.00
2022-09-12T00:28:18.138Z,0.00
2022-09-12T00:29:18.121Z,0.00
2022-09-12T00:30:18.109Z,0.00
2022-09-12T00:31:18.189Z,0.00
2022-09-12T00:32:18.090Z,0.00
2022-09-12T00:33:18.072Z,0.00
2022-09-12T00:34:26.110Z,0.00
2022-09-12T00:35:18.048Z,0.00
2022-09-12T00:36:18.036Z,0.00
2022-09-12T00:37:18.040Z,0.00
2022-09-12T00:38:18.014Z,0.00
2022-09-12T00:39:18.002Z,0.00
2022-09-12T00:40:18.038Z,0.00
2022-09-12T00:41:17.969Z,0.00
2022-09-12T00:42:17.947Z,0.00
2022-09-12T00:43:17.958Z,0.00
2022-09-12T00:44:17.938Z,0.00
2022-09-12T00:45:17.939Z,0.00
2022-09-12T00:46:17.921Z,0.00
2022-09-12T00:47:17.898Z,0.00
2022-09-12T00:48:17.902Z,0.00
2022-09-12T00:49:17.891Z,0.00
2022-09-12T00:50:17.856Z,0.00
2022-09-12T00:51:17.846Z,0.00
2022-09-12T00:52:17.828Z,0.00
2022-09-12T00:53:17.837Z,0.00
2022-09-12T00:54:17.821Z,0.00
2022-09-12T00:55:17.797Z,0.00
2022-09-12T00:56:17.800Z,0.00
2022-09-12T00:57:17.767Z,0.00
2022-09-12T00:58:17.759Z,0.00
2022-09-12T00:59:17.750Z,0.00
2022-09-12T01:00:17.765Z,0.00
2022-09-12T01:01:17.830Z,0.00
2022-09-12T01:02:17.747Z,0.00
2022-09-12T01:03:17.732Z,0.00
2022-09-12T01:04:17.691Z,0.00
2022-09-12T01:05:17.680Z,0.00
2022-09-12T01:06:17.659Z,0.00
2022-09-12T01:07:17.640Z,0.00
2022-09-12T01:08:17.619Z,0.00
2022-09-12T01:09:17.611Z,0.00
2022-09-12T01:10:17.611Z,0.00
2022-09-12T01:11:17.605Z,0.00
2022-09-12T01:12:17.590Z,0.00
2022-09-12T01:13:17.577Z,0.00
2022-09-12T01:14:17.628Z,0.00
2022-09-12T01:15:17.542Z,0.00
2022-09-12T01:16:17.564Z,0.00
2022-09-12T01:17:17.523Z,0.00
2022-09-12T01:18:17.521Z,0.00
2022-09-12T01:19:17.491Z,0.00
2022-09-12T01:20:17.472Z,0.00
2022-09-12T01:21:17.463Z,0.00
2022-09-12T01:22:17.461Z,0.00
2022-09-12T01:23:17.442Z,0.00
2022-09-12T01:24:17.433Z,0.00
2022-09-12T01:25:17.411Z,0.00
2022-09-12T01:26:17.392Z,0.00
2022-09-12T01:27:17.399Z,0.00
2022-09-12T01:28:17.371Z,0.00
2022-09-12T01:29:17.361Z,0.00
2022-09-12T01:30:17.342Z,0.00
2022-09-12T01:31:17.343Z,0.00
2022-09-12T01:32:17.451Z,0.00
2022-09-12T01:33:17.345Z,0.00
2022-09-12T01:34:17.310Z,0.00
2022-09-12T01:35:17.283Z,0.00
2022-09-12T01:36:17.274Z,0.00
2022-09-12T01:37:17.265Z,0.00
2022-09-12T01:38:17.263Z,0.00
2022-09-12T01:39:17.250Z,0.00
2022-09-12T01:40:17.317Z,0.00
2022-09-12T01:41:17.211Z,0.00
2022-09-12T01:42:17.216Z,0.00
2022-09-12T01:43:17.182Z,0.00
2022-09-12T01:44:17.175Z,0.00
2022-09-12T01:45:17.170Z,0.00
2022-09-12T01:46:17.146Z,0.00
2022-09-12T01:47:17.134Z,0.00
2022-09-12T01:48:17.127Z,0.00
2022-09-12T01:49:17.131Z,0.00
2022-09-12T01:50:17.111Z,0.00
2022-09-12T01:51:17.088Z,0.00
2022-09-12T01:52:17.093Z,0.00
2022-09-12T01:53:17.053Z,0.00
2022-09-12T01:54:17.064Z,0.00
2022-09-12T01:55:17.026Z,0.00
2022-09-12T01:56:17.035Z,0.00
2022-09-12T01:57:17.003Z,0.00
2022-09-12T01:58:17.004Z,0.00
2022-09-12T01:59:16.990Z,0.00
2022-09-12T02:00:16.965Z,0.00
2022-09-12T02:01:17.000Z,0.00
2022-09-12T02:02:16.972Z,0.00
2022-09-12T02:03:16.928Z,0.00
2022-09-12T02:04:16.924Z,0.00
2022-09-12T02:05:16.894Z,0.00
2022-09-12T02:06:16.895Z,0.00
2022-09-12T02:07:16.864Z,0.00
2022-09-12T02:08:16.863Z,0.00
2022-09-12T02:09:16.844Z,0.00
2022-09-12T02:10:16.834Z,0.00
2022-09-12T02:11:16.848Z,0.00
2022-09-12T02:12:16.807Z,0.00
2022-09-12T02:13:16.804Z,0.00
2022-09-12T02:14:16.817Z,0.00
2022-09-12T02:15:16.766Z,0.00
2022-09-12T02:16:16.790Z,0.00
2022-09-12T02:17:16.757Z,0.00
2022-09-12T02:18:16.747Z,0.00
2022-09-12T02:19:16.715Z,0.00
2022-09-12T02:20:31.078Z,0.00
2022-09-12T02:21:17.693Z,0.00
2022-09-12T02:22:16.693Z,0.00
2022-09-12T02:23:16.656Z,0.00
2022-09-12T02:24:16.655Z,0.00
2022-09-12T02:25:16.636Z,0.00
2022-09-12T02:26:16.636Z,0.00
2022-09-12T02:27:16.657Z,0.00
2022-09-12T02:28:16.607Z,0.00
2022-09-12T02:29:16.595Z,0.00
2022-09-12T02:30:16.588Z,0.00
2022-09-12T02:31:16.587Z,0.00
2022-09-12T02:32:16.555Z,0.00
2022-09-12T02:33:16.579Z,0.00
2022-09-12T02:34:16.527Z,0.00
2022-09-12T02:35:16.506Z,0.00
2022-09-12T02:36:16.562Z,0.00
2022-09-12T02:37:16.475Z,0.00
2022-09-12T02:38:16.464Z,0.00
2022-09-12T02:39:16.457Z,0.00
2022-09-12T02:40:16.499Z,0.00
2022-09-12T02:41:16.425Z,0.00
2022-09-12T02:42:16.427Z,0.00
2022-09-12T02:43:16.408Z,0.00
2022-09-12T02:44:16.407Z,0.00
2022-09-12T02:45:16.387Z,0.00
2022-09-12T02:46:16.378Z,0.00
2022-09-12T02:47:16.349Z,0.00
2022-09-12T02:48:16.367Z,0.00
2022-09-12T02:49:16.350Z,0.00
2022-09-12T02:50:16.315Z,0.00
2022-09-12T02:51:20.310Z,0.00
2022-09-12T02:52:17.295Z,0.00
2022-09-12T02:53:16.266Z,0.00
2022-09-12T02:54:16.268Z,0.00
2022-09-12T02:55:16.271Z,0.00
2022-09-12T02:56:16.259Z,0.00
2022-09-12T02:57:19.496Z,0.00
2022-09-12T02:58:17.246Z,0.00
2022-09-12T02:59:16.189Z,0.00
2022-09-12T03:00:16.226Z,0.00
2022-09-12T03:01:16.234Z,0.00
2022-09-12T03:02:16.282Z,0.00
2022-09-12T03:03:16.137Z,0.00
2022-09-12T03:04:16.145Z,0.00
2022-09-12T03:05:16.118Z,0.00
2022-09-12T03:06:16.118Z,0.00
2022-09-12T03:07:16.089Z,0.00
2022-09-12T03:08:16.080Z,0.00
2022-09-12T03:09:16.058Z,0.00
2022-09-12T03:10:16.061Z,0.00
2022-09-12T03:11:16.068Z,0.00
2022-09-12T03:12:16.039Z,0.00
2022-09-12T03:13:16.022Z,0.00
2022-09-12T03:14:16.017Z,0.00
2022-09-12T03:15:15.978Z,0.00
2022-09-12T03:16:16.020Z,0.00
2022-09-12T03:17:15.968Z,0.00
2022-09-12T03:18:15.939Z,0.00
2022-09-12T03:19:16.075Z,0.00
2022-09-12T03:20:15.917Z,0.00
2022-09-12T03:21:15.933Z,0.00
2022-09-12T03:22:15.890Z,0.00
2022-09-12T03:23:15.942Z,0.00
2022-09-12T03:24:15.889Z,0.00
2022-09-12T03:25:15.859Z,0.00
2022-09-12T03:26:15.869Z,0.00
2022-09-12T03:27:15.832Z,0.00
2022-09-12T03:28:15.815Z,0.00
2022-09-12T03:29:15.820Z,0.00
2022-09-12T03:30:15.797Z,0.00
2022-09-12T03:31:15.769Z,0.00
2022-09-12T03:32:15.769Z,0.00
2022-09-12T03:33:15.754Z,0.00
2022-09-12T03:34:15.758Z,0.00
2022-09-12T03:35:17.931Z,0.00
2022-09-12T03:36:15.698Z,0.00
2022-09-12T03:37:15.688Z,0.00
2022-09-12T03:38:15.688Z,0.00
2022-09-12T03:39:15.690Z,0.00
2022-09-12T03:40:15.721Z,0.00
2022-09-12T03:41:15.661Z,0.00
2022-09-12T03:42:15.659Z,0.00
2022-09-12T03:43:15.630Z,0.00
2022-09-12T03:44:15.600Z,0.00
2022-09-12T03:45:15.607Z,0.00
2022-09-12T03:46:15.569Z,0.00
2022-09-12T03:47:15.569Z,0.00
2022-09-12T03:48:15.540Z,0.00
2022-09-12T03:49:15.557Z,0.00
2022-09-12T03:50:15.539Z,0.00
2022-09-12T03:51:15.518Z,0.00
2022-09-12T03:52:15.490Z,0.00
2022-09-12T03:53:17.434Z,0.00
2022-09-12T03:54:15.488Z,0.00
2022-09-12T03:55:15.455Z,0.00
2022-09-12T03:56:15.431Z,0.00
2022-09-12T03:57:15.465Z,0.00
2022-09-12T03:58:15.402Z,0.00
2022-09-12T03:59:15.393Z,0.00
2022-09-12T04:00:19.524Z,0.00
2022-09-12T04:01:15.421Z,0.00
2022-09-12T04:02:15.407Z,0.00
2022-09-12T04:03:15.372Z,0.00
2022-09-12T04:04:15.351Z,0.00
2022-09-12T04:05:15.331Z,0.00
2022-09-12T04:06:15.321Z,0.00
2022-09-12T04:07:15.334Z,0.00
2022-09-12T04:08:15.294Z,0.00
2022-09-12T04:09:15.295Z,0.00
2022-09-12T04:10:16.336Z,0.00
2022-09-12T04:11:15.274Z,0.00
2022-09-12T04:12:15.265Z,0.00
2022-09-12T04:13:15.210Z,0.00
2022-09-12T04:14:15.210Z,0.00
2022-09-12T04:15:15.210Z,0.00
2022-09-12T04:16:15.235Z,0.00
2022-09-12T04:17:15.161Z,0.00
2022-09-12T04:18:15.162Z,0.00
2022-09-12T04:19:15.153Z,0.00
2022-09-12T04:20:15.131Z,0.00
2022-09-12T04:21:15.132Z,0.00
2022-09-12T04:22:15.116Z,0.00
2022-09-12T04:23:15.112Z,0.00
2022-09-12T04:24:15.110Z,0.00
2022-09-12T04:25:15.074Z,0.00
2022-09-12T04:26:15.061Z,0.00
2022-09-12T04:27:15.092Z,5.62
2022-09-12T04:28:17.762Z,5.62
2022-09-12T04:29:15.003Z,5.62
2022-09-12T04:30:14.999Z,5.62
2022-09-12T04:31:14.971Z,5.62
2022-09-12T04:32:14.984Z,5.62
2022-09-12T04:33:14.955Z,5.62
2022-09-12T04:34:14.953Z,11.25
2022-09-12T04:35:14.931Z,11.25
2022-09-12T04:36:14.967Z,11.25
2022-09-12T04:37:14.913Z,11.25
2022-09-12T04:38:14.901Z,11.25
2022-09-12T04:39:14.877Z,11.25
2022-09-12T04:40:14.925Z,16.88
2022-09-12T04:41:14.933Z,16.88
2022-09-12T04:42:14.860Z,16.88
2022-09-12T04:43:14.825Z,16.88
2022-09-12T04:44:14.811Z,22.50
2022-09-12T04:45:14.795Z,22.50
2022-09-12T04:46:14.855Z,22.50
2022-09-12T04:47:14.792Z,22.50
2022-09-12T04:48:14.768Z,28.12
2022-09-12T04:49:14.745Z,28.12
2022-09-12T04:50:14.736Z,28.12
2022-09-12T04:51:14.745Z,33.75
2022-09-12T04:52:14.721Z,33.75
2022-09-12T04:53:14.719Z,33.75
2022-09-12T04:54:14.685Z,39.38
2022-09-12T04:55:14.667Z,39.38
2022-09-12T04:56:14.654Z,39.38
2022-09-12T04:57:14.652Z,45.00
2022-09-12T04:58:14.655Z,45.00
2022-09-12T04:59:14.620Z,50.62
2022-09-12T05:00:14.592Z,50.62
2022-09-12T05:01:14.685Z,50.62
2022-09-12T05:02:14.634Z,56.25
2022-09-12T05:03:14.564Z,56.25
2022-09-12T05:04:14.555Z,61.88
2022-09-12T05:05:14.542Z,61.88
2022-09-12T05:06:14.513Z,61.88
2022-09-12T05:07:14.543Z,67.50
2022-09-12T05:08:14.492Z,67.50
2022-09-12T05:09:14.492Z,67.50
2022-09-12T05:10:14.464Z,73.12
2022-09-12T05:11:14.436Z,73.12
2022-09-12T05:12:14.426Z,78.75
2022-09-12T05:13:14.425Z,78.75
2022-09-12T05:14:14.414Z,78.75
2022-09-12T05:15:14.395Z,84.38
2022-09-12T05:16:14.399Z,84.38
2022-09-12T05:17:14.367Z,84.38
2022-09-12T05:18:14.391Z,90.00
2022-09-12T05:19:14.355Z,90.00
2022-09-12T05:20:14.343Z,90.00
2022-09-12T05:21:14.355Z,95.62
2022-09-12T05:22:14.297Z,95.62
2022-09-12T05:23:14.292Z,95.62
2022-09-12T05:24:14.306Z,101.25
2022-09-12T05:25:14.273Z,101.25
2022-09-12T05:26:14.269Z,101.25
2022-09-12T05:27:14.233Z,106.88
2022-09-12T05:28:14.225Z,106.88
2022-09-12T05:29:14.209Z,106.88
2022-09-12T05:30:14.246Z,106.88
2022-09-12T05:31:14.216Z,112.50
2022-09-12T05:32:14.188Z,112.50
2022-09-12T05:33:14.163Z,112.50
2022-09-12T05:34:14.155Z,118.12
2022-09-12T05:35:14.136Z,118.12
2022-09-12T05:36:14.136Z,118.12
2022-09-12T05:37:14.109Z,123.75
2022-09-12T05:38:14.101Z,123.75
2022-09-12T05:39:14.090Z,123.75
2022-09-12T05:40:14.133Z,123.75
2022-09-12T05:41:18.221Z,129.38
2022-09-12T05:42:15.058Z,129.38
2022-09-12T05:43:14.030Z,129.38
2022-09-12T05:44:14.025Z,135.00
2022-09-12T05:45:14.004Z,135.00
2022-09-12T05:46:14.038Z,135.00
2022-09-12T05:47:13.998Z,140.62
2022-09-12T05:48:13.982Z,140.62
2022-09-12T05:49:13.979Z,140.62
2022-09-12T05:50:13.959Z,146.25
2022-09-12T05:51:13.927Z,146.25
2022-09-12T05:52:13.925Z,146.25
2022-09-12T05:53:14.042Z,146.25
2022-09-12T05:54:13.898Z,146.25
2022-09-12T05:55:13.878Z,146.25
2022-09-12T05:56:13.879Z,151.88
2022-09-12T05:57:13.857Z,151.88
2022-09-12T05:58:13.844Z,151.88
2022-09-12T05:59:13.889Z,151.88
2022-09-12T06:00:13.818Z,157.50
2022-09-12T06:01:13.841Z,157.50
2022-09-12T06:02:13.868Z,157.50
2022-09-12T06:03:13.767Z,157.50
2022-09-12T06:04:13.760Z,163.12
2022-09-12T06:05:13.739Z,163.12
2022-09-12T06:06:13.747Z,163.12
2022-09-12T06:07:13.740Z,163.12
2022-09-12T06:08:13.710Z,168.75
2022-09-12T06:09:13.700Z,168.75
2022-09-12T06:10:13.677Z,168.75
2022-09-12T06:11:13.658Z,174.38
2022-09-12T06:12:13.666Z,174.38
2022-09-12T06:13:13.645Z,174.38
2022-09-12T06:14:13.618Z,174.38
2022-09-12T06:15:13.618Z,180.00
2022-09-12T06:16:13.616Z,180.00
2022-09-12T06:17:13.576Z,180.00
2022-09-12T06:18:13.598Z,180.00
2022-09-12T06:19:13.593Z,185.62
2022-09-12T06:20:13.554Z,185.62
2022-09-12T06:21:13.549Z,185.62
2022-09-12T06:22:13.519Z,185.62
2022-09-12T06:23:13.508Z,185.62
2022-09-12T06:24:13.519Z,191.25
2022-09-12T06:25:13.523Z,191.25
2022-09-12T06:26:13.458Z,191.25
2022-09-12T06:27:13.447Z,191.25
2022-09-12T06:28:13.461Z,191.25
2022-09-12T06:29:13.495Z,191.25
2022-09-12T06:30:13.418Z,196.88
2022-09-12T06:31:13.418Z,196.88
2022-09-12T06:32:13.378Z,196.88
2022-09-12T06:33:13.370Z,196.88
2022-09-12T06:34:13.404Z,196.88
2022-09-12T06:35:20.375Z,202.50
2022-09-12T06:36:13.340Z,202.50
2022-09-12T06:37:13.323Z,202.50
2022-09-12T06:38:13.304Z,202.50
2022-09-12T06:39:13.297Z,202.50
2022-09-12T06:40:13.322Z,202.50
2022-09-12T06:41:13.264Z,202.50
2022-09-12T06:42:13.251Z,208.12
2022-09-12T06:43:13.239Z,208.12
2022-09-12T06:44:13.222Z,213.75
2022-09-12T06:45:13.223Z,208.12
2022-09-12T06:46:13.309Z,208.12
2022-09-12T06:47:13.185Z,213.75
2022-09-12T06:48:13.165Z,208.12
2022-09-12T06:49:13.165Z,213.75
2022-09-12T06:50:13.146Z,213.75
2022-09-12T06:51:13.147Z,213.75
2022-09-12T06:52:13.115Z,213.75
2022-09-12T06:53:13.109Z,219.38
2022-09-12T06:54:13.093Z,219.38
2022-09-12T06:55:16.247Z,219.38
2022-09-12T06:56:14.100Z,219.38
2022-09-12T06:57:13.105Z,219.38
2022-09-12T06:58:13.044Z,219.38
2022-09-12T06:59:13.064Z,219.38
2022-09-12T07:00:13.015Z,219.38
2022-09-12T07:01:13.031Z,219.38
2022-09-12T07:02:13.001Z,225.00
2022-09-12T07:03:12.997Z,225.00
2022-09-12T07:04:12.957Z,225.00
2022-09-12T07:05:12.964Z,225.00
2022-09-12T07:06:12.940Z,225.00
2022-09-12T07:07:12.926Z,225.00
2022-09-12T07:08:12.901Z,225.00
2022-09-12T07:09:12.904Z,230.62
2022-09-12T07:10:12.876Z,230.62
2022-09-12T07:11:12.865Z,230.62
2022-09-12T07:12:12.856Z,230.62
2022-09-12T07:13:12.867Z,230.62
2022-09-12T07:14:12.858Z,230.62
2022-09-12T07:15:12.837Z,230.62
2022-09-12T07:16:17.262Z,230.62
2022-09-12T07:17:13.796Z,230.62
2022-09-12T07:18:12.786Z,236.25
2022-09-12T07:19:12.772Z,236.25
2022-09-12T07:20:12.746Z,230.62
2022-09-12T07:21:12.784Z,236.25
2022-09-12T07:22:12.726Z,236.25
2022-09-12T07:23:12.706Z,236.25
2022-09-12T07:24:12.697Z,236.25
2022-09-12T07:25:12.686Z,230.62
2022-09-12T07:26:12.675Z,236.25
2022-09-12T07:27:12.686Z,236.25
2022-09-12T07:28:12.659Z,236.25
2022-09-12T07:29:35.231Z,236.25
2022-09-12T07:30:13.639Z,241.88
2022-09-12T07:31:12.656Z,241.88
2022-09-12T07:32:12.598Z,241.88
2022-09-12T07:33:12.588Z,241.88
2022-09-12T07:34:12.579Z,241.88
2022-09-12T07:35:12.567Z,241.88
2022-09-12T07:36:12.568Z,241.88
2022-09-12T07:37:12.543Z,241.88
2022-09-12T07:38:12.507Z,247.50
2022-09-12T07:39:12.529Z,241.88
2022-09-12T07:40:12.520Z,241.88
2022-09-12T07:41:12.477Z,247.50
2022-09-12T07:42:12.468Z,247.50
2022-09-12T07:43:12.458Z,247.50
2022-09-12T07:44:12.446Z,247.50
2022-09-12T07:45:12.432Z,247.50
2022-09-12T07:46:12.444Z,247.50
2022-09-12T07:47:12.410Z,253.12
2022-09-12T07:48:12.431Z,253.12
2022-09-12T07:49:12.371Z,253.12
2022-09-12T07:50:12.361Z,253.12
2022-09-12T07:51:12.341Z,253.12
2022-09-12T07:52:12.329Z,258.75
2022-09-12T07:53:12.334Z,253.12
2022-09-12T07:54:12.303Z,270.00
2022-09-12T07:55:12.369Z,281.25
2022-09-12T07:56:12.280Z,275.62
2022-09-12T07:57:12.260Z,264.38
2022-09-12T07:58:12.250Z,264.38
2022-09-12T07:59:12.249Z,264.38
2022-09-12T08:00:12.239Z,264.38
2022-09-12T08:01:12.278Z,264.38
2022-09-12T08:02:16.537Z,270.00
2022-09-12T08:03:13.181Z,253.12
2022-09-12T08:04:12.179Z,225.00
2022-09-12T08:05:12.162Z,270.00
2022-09-12T08:06:12.161Z,270.00
2022-09-12T08:07:12.133Z,264.38
2022-09-12T08:08:12.120Z,258.75
2022-09-12T08:09:12.117Z,219.38
2022-09-12T08:10:12.089Z,281.25
2022-09-12T08:11:12.090Z,286.88
2022-09-12T08:12:12.084Z,281.25
2022-09-12T08:13:12.061Z,275.62
2022-09-12T08:14:12.044Z,275.62
2022-09-12T08:15:12.035Z,230.62
2022-09-12T08:16:12.074Z,213.75
2022-09-12T08:17:12.017Z,253.12
2022-09-12T08:18:12.057Z,281.25
2022-09-12T08:19:11.983Z,281.25
2022-09-12T08:20:11.962Z,286.88
2022-09-12T08:21:11.961Z,286.88
2022-09-12T08:22:11.994Z,286.88
2022-09-12T08:23:11.962Z,292.50
2022-09-12T08:24:11.915Z,298.12
2022-09-12T08:25:11.904Z,309.38
2022-09-12T08:26:11.885Z,309.38
2022-09-12T08:27:11.875Z,309.38
2022-09-12T08:28:11.864Z,309.38
2022-09-12T08:29:11.898Z,309.38
2022-09-12T08:30:11.835Z,315.00
2022-09-12T08:31:11.956Z,320.62
2022-09-12T08:32:11.811Z,281.25
2022-09-12T08:33:11.793Z,230.62
2022-09-12T08:34:11.784Z,241.88
2022-09-12T08:35:11.793Z,258.75
2022-09-12T08:36:11.757Z,365.62
2022-09-12T08:37:11.745Z,320.62
2022-09-12T08:38:11.733Z,382.50
2022-09-12T08:39:11.715Z,365.62
2022-09-12T08:40:11.761Z,298.12
2022-09-12T08:41:11.697Z,275.62
2022-09-12T08:43:11.667Z,343.12
2022-09-12T08:44:11.656Z,281.25
2022-09-12T08:45:11.647Z,286.88
2022-09-12T08:46:11.718Z,365.62
2022-09-12T08:47:11.628Z,360.00
2022-09-12T08:48:11.586Z,416.25
2022-09-12T08:49:11.598Z,427.50
2022-09-12T08:50:11.623Z,427.50
2022-09-12T08:51:11.548Z,416.25
2022-09-12T08:52:11.546Z,399.38
2022-09-12T08:53:11.537Z,326.25
2022-09-12T08:54:11.510Z,270.00
2022-09-12T08:55:11.520Z,264.38
2022-09-12T08:56:11.489Z,270.00
2022-09-12T08:57:11.503Z,275.62
2022-09-12T08:58:11.496Z,281.25
2022-09-12T08:59:11.459Z,298.12
2022-09-12T09:00:11.477Z,315.00
2022-09-12T09:01:11.495Z,326.25
2022-09-12T09:02:11.435Z,331.88
2022-09-12T09:03:11.418Z,309.38
2022-09-12T09:04:11.368Z,281.25
2022-09-12T09:05:11.377Z,270.00
2022-09-12T09:06:11.352Z,292.50
2022-09-12T09:07:11.339Z,292.50
2022-09-12T09:08:11.338Z,360.00
2022-09-12T09:09:11.319Z,354.38
2022-09-12T09:10:11.300Z,371.25
2022-09-12T09:11:11.288Z,292.50
2022-09-12T09:12:11.288Z,286.88
2022-09-12T09:13:11.270Z,281.25
2022-09-12T09:14:11.261Z,292.50
2022-09-12T09:15:11.260Z,315.00
2022-09-12T09:16:11.268Z,393.75
2022-09-12T09:17:11.209Z,388.12
2022-09-12T09:18:11.201Z,393.75
2022-09-12T09:19:11.187Z,399.38
2022-09-12T09:20:11.351Z,399.38
2022-09-12T09:21:11.162Z,410.62
2022-09-12T09:22:11.142Z,427.50
2022-09-12T09:23:11.133Z,438.75
2022-09-12T09:24:11.120Z,461.25
2022-09-12T09:25:11.109Z,478.12
2022-09-12T09:26:11.105Z,495.00
2022-09-12T09:27:29.757Z,500.62
2022-09-12T09:28:12.061Z,500.62
2022-09-12T09:29:11.051Z,483.75
2022-09-12T09:30:11.042Z,461.25
2022-09-12T09:31:11.279Z,433.12
2022-09-12T09:32:11.018Z,427.50
2022-09-12T09:33:11.003Z,421.88
2022-09-12T09:34:10.982Z,393.75
2022-09-12T09:35:10.972Z,326.25
2022-09-12T09:36:10.964Z,309.38
2022-09-12T09:37:10.966Z,315.00
2022-09-12T09:38:10.934Z,303.75
2022-09-12T09:39:10.924Z,286.88
2022-09-12T09:40:10.939Z,281.25
2022-09-12T09:41:10.902Z,281.25
2022-09-12T09:42:10.893Z,281.25
2022-09-12T09:43:10.874Z,298.12
2022-09-12T09:44:10.867Z,298.12
2022-09-12T09:45:10.854Z,303.75
2022-09-12T09:46:10.906Z,343.12
2022-09-12T09:47:10.832Z,405.00
2022-09-12T09:48:10.795Z,427.50
2022-09-12T09:49:10.795Z,421.88
2022-09-12T09:50:10.824Z,427.50
2022-09-12T09:51:10.765Z,427.50
2022-09-12T09:52:10.766Z,427.50
2022-09-12T09:53:10.757Z,433.12
2022-09-12T09:54:10.749Z,438.75
2022-09-12T09:55:10.726Z,444.38
2022-09-12T09:56:10.708Z,450.00
2022-09-12T09:57:10.718Z,444.38
2022-09-12T09:58:10.678Z,438.75
2022-09-12T09:59:10.679Z,433.12
2022-09-12T10:00:10.644Z,427.50
2022-09-12T10:01:10.666Z,416.25
2022-09-12T10:02:10.682Z,399.38
2022-09-12T10:03:13.775Z,315.00
2022-09-12T10:04:10.638Z,303.75
2022-09-12T10:05:10.579Z,286.88
2022-09-12T10:06:10.556Z,281.25
2022-09-12T10:07:10.547Z,275.62
2022-09-12T10:08:10.549Z,275.62
2022-09-12T10:09:10.547Z,275.62
2022-09-12T10:10:10.586Z,275.62
2022-09-12T10:11:10.508Z,281.25
2022-09-12T10:12:10.490Z,286.88
2022-09-12T10:13:10.495Z,286.88
2022-09-12T10:14:10.475Z,292.50
2022-09-12T10:15:10.471Z,303.75
2022-09-12T10:16:10.489Z,331.88
2022-09-12T10:17:10.429Z,416.25
2022-09-12T10:18:10.400Z,421.88
2022-09-12T10:19:10.400Z,433.12
2022-09-12T10:20:22.860Z,444.38
2022-09-12T10:21:11.580Z,354.38
2022-09-12T10:22:10.349Z,376.88
2022-09-12T10:23:10.341Z,461.25
2022-09-12T10:24:10.338Z,382.50
2022-09-12T10:25:10.319Z,472.50
2022-09-12T10:26:10.333Z,483.75
2022-09-12T10:27:10.354Z,495.00
2022-09-12T10:28:10.282Z,500.62
2022-09-12T10:29:10.330Z,500.62
2022-09-12T10:30:10.263Z,495.00
2022-09-12T10:31:10.301Z,495.00
2022-09-12T10:32:10.221Z,500.62
2022-09-12T10:33:10.213Z,495.00
2022-09-12T10:34:10.192Z,483.75
2022-09-12T10:35:10.171Z,472.50
2022-09-12T10:36:10.161Z,450.00
2022-09-12T10:37:10.152Z,438.75
2022-09-12T10:38:10.180Z,433.12
2022-09-12T10:39:10.133Z,421.88
2022-09-12T10:40:10.216Z,343.12
2022-09-12T10:41:10.113Z,354.38
2022-09-12T10:42:10.103Z,264.38
2022-09-12T10:43:10.084Z,264.38
2022-09-12T10:44:10.097Z,264.38
2022-09-12T10:45:10.062Z,270.00
2022-09-12T10:46:10.103Z,270.00
2022-09-12T10:47:10.044Z,382.50
2022-09-12T10:48:10.023Z,388.12
2022-09-12T10:49:10.083Z,388.12
2022-09-12T10:50:14.795Z,298.12
2022-09-12T10:51:10.965Z,382.50
2022-09-12T10:52:09.964Z,382.50
2022-09-12T10:53:09.951Z,382.50
2022-09-12T10:54:09.944Z,388.12
2022-09-12T10:55:09.924Z,393.75
2022-09-12T10:56:09.927Z,393.75
2022-09-12T10:57:09.896Z,393.75
2022-09-12T10:58:09.888Z,399.38
2022-09-12T10:59:09.875Z,393.75
2022-09-12T11:00:09.866Z,399.38
2022-09-12T11:01:09.883Z,399.38
2022-09-12T11:02:09.905Z,399.38
2022-09-12T11:03:09.826Z,399.38
2022-09-12T11:04:09.815Z,399.38
2022-09-12T11:05:09.797Z,399.38
2022-09-12T11:06:09.787Z,405.00
2022-09-12T11:07:09.777Z,410.62
2022-09-12T11:08:09.757Z,416.25
2022-09-12T11:09:09.737Z,416.25
2022-09-12T11:10:09.735Z,410.62
2022-09-12T11:11:09.717Z,410.62
2022-09-12T11:12:09.707Z,388.12
2022-09-12T11:13:09.701Z,399.38
2022-09-12T11:14:09.689Z,410.62
2022-09-12T11:15:09.670Z,320.62
2022-09-12T11:16:09.699Z,292.50
2022-09-12T11:17:13.250Z,298.12
2022-09-12T11:18:09.627Z,298.12
2022-09-12T11:19:09.612Z,298.12
2022-09-12T11:20:09.597Z,303.75
2022-09-12T11:21:09.584Z,309.38
2022-09-12T11:22:09.573Z,315.00
2022-09-12T11:23:09.690Z,320.62
2022-09-12T11:24:09.552Z,326.25
2022-09-12T11:25:09.539Z,405.00
2022-09-12T11:26:09.530Z,315.00
2022-09-12T11:27:09.531Z,320.62
2022-09-12T11:28:09.490Z,331.88
2022-09-12T11:29:09.489Z,337.50
2022-09-12T11:30:09.472Z,343.12
2022-09-12T11:31:09.489Z,337.50
2022-09-12T11:32:09.460Z,348.75
2022-09-12T11:33:09.421Z,360.00
2022-09-12T11:34:09.443Z,360.00
2022-09-12T11:35:11.079Z,365.62
2022-09-12T11:36:09.403Z,371.25
2022-09-12T11:37:11.029Z,376.88
2022-09-12T11:38:09.382Z,388.12
2022-09-12T11:39:09.362Z,393.75
2022-09-12T11:40:09.387Z,393.75
2022-09-12T11:41:09.344Z,393.75
2022-09-12T11:42:09.334Z,393.75
2022-09-12T11:43:09.318Z,427.50
2022-09-12T11:44:09.291Z,376.88
2022-09-12T11:45:09.274Z,360.00
2022-09-12T11:46:09.282Z,348.75
2022-09-12T11:47:09.245Z,360.00
2022-09-12T11:48:09.244Z,365.62
2022-09-12T11:49:09.224Z,343.12
2022-09-12T11:50:09.212Z,343.12
2022-09-12T11:51:09.204Z,399.38
2022-09-12T11:52:09.199Z,331.88
2022-09-12T11:53:09.186Z,360.00
2022-09-12T11:54:09.175Z,331.88
2022-09-12T11:55:09.156Z,331.88
2022-09-12T11:56:09.135Z,326.25
2022-09-12T11:57:09.197Z,331.88
2022-09-12T11:58:09.117Z,337.50
2022-09-12T11:59:09.097Z,331.88
2022-09-12T12:00:09.092Z,331.88
2022-09-12T12:01:09.075Z,326.25
2022-09-12T12:02:09.141Z,320.62
2022-09-12T12:03:09.125Z,320.62
2022-09-12T12:04:09.037Z,320.62
2022-09-12T12:05:09.016Z,326.25
2022-09-12T12:06:09.017Z,326.25
2022-09-12T12:07:08.997Z,326.25
2022-09-12T12:08:09.006Z,331.88
2022-09-12T12:09:08.978Z,337.50
2022-09-12T12:10:08.987Z,337.50
2022-09-12T12:11:08.949Z,343.12
2022-09-12T12:12:08.939Z,343.12
2022-09-12T12:13:13.806Z,343.12
2022-09-12T12:14:09.930Z,348.75
2022-09-12T12:15:08.910Z,427.50
2022-09-12T12:16:08.918Z,433.12
2022-09-12T12:17:08.879Z,427.50
2022-09-12T12:18:08.858Z,416.25
2022-09-12T12:19:10.844Z,416.25
2022-09-12T12:20:08.958Z,421.88
2022-09-12T12:21:08.820Z,416.25
2022-09-12T12:22:08.809Z,421.88
2022-09-12T12:23:08.798Z,421.88
2022-09-12T12:24:08.793Z,427.50
2022-09-12T12:25:08.982Z,444.38
2022-09-12T12:26:08.769Z,399.38
2022-09-12T12:27:08.743Z,393.75
2022-09-12T12:28:08.794Z,450.00
2022-09-12T12:29:08.711Z,444.38
2022-09-12T12:30:08.760Z,472.50
2022-09-12T12:31:08.803Z,489.38
2022-09-12T12:32:08.721Z,500.62
2022-09-12T12:33:08.677Z,506.25
2022-09-12T12:34:08.650Z,506.25
2022-09-12T12:35:15.662Z,511.88
2022-09-12T12:36:08.623Z,523.12
2022-09-12T12:37:08.630Z,540.00
2022-09-12T12:38:08.592Z,528.75
2022-09-12T12:39:08.586Z,540.00
2022-09-12T12:40:08.653Z,534.38
2022-09-12T12:41:08.551Z,523.12
2022-09-12T12:42:08.542Z,540.00
2022-09-12T12:43:08.547Z,545.62
2022-09-12T12:44:08.514Z,551.25
2022-09-12T12:45:08.502Z,540.00
2022-09-12T12:46:08.557Z,528.75
2022-09-12T12:47:08.495Z,556.88
2022-09-12T12:48:08.468Z,568.12